createdAt,value
2022-08-01T00:01:26.448Z,42.15
2022-08-01T00:03:30.989Z,42.23
2022-08-01T00:05:35.533Z,42.24
2022-08-01T00:07:40.157Z,42.3
2022-08-01T00:09:44.718Z,42.36
2022-08-01T00:12:01.790Z,42.34
2022-08-01T00:14:06.309Z,42.43
2022-08-01T00:16:10.889Z,42.4
2022-08-01T00:18:15.313Z,42.42
2022-08-01T00:20:19.863Z,42.38
2022-08-01T00:22:24.555Z,42.42
2022-08-01T00:24:29.059Z,42.44
2022-08-01T00:26:33.597Z,42.41
2022-08-01T00:28:38.098Z,42.44
2022-08-01T00:30:42.762Z,42.42
2022-08-01T00:32:47.241Z,42.37
2022-08-01T00:34:53.338Z,42.36
2022-08-01T00:36:58.049Z,42.35
2022-08-01T00:39:02.583Z,42.39
2022-08-01T00:41:07.205Z,42.36
2022-08-01T00:43:11.721Z,42.4
2022-08-01T00:45:16.448Z,42.36
2022-08-01T00:47:20.936Z,42.39
2022-08-01T00:49:25.801Z,42.4
2022-08-01T00:51:30.227Z,42.44
2022-08-01T00:53:53.665Z,42.51
2022-08-01T00:55:59.628Z,42.54
2022-08-01T00:58:08.010Z,42.58
2022-08-01T01:00:17.369Z,42.66
2022-08-01T01:02:21.846Z,42.72
2022-08-01T01:04:26.589Z,42.75
2022-08-01T01:06:31.363Z,42.85
2022-08-01T01:08:35.841Z,42.83
2022-08-01T01:10:40.326Z,42.88
2022-08-01T01:12:51.357Z,42.91
2022-08-01T01:14:55.861Z,42.94
2022-08-01T01:17:00.338Z,42.98
2022-08-01T01:19:04.779Z,43
2022-08-01T01:21:09.312Z,43.07
2022-08-01T01:23:14.005Z,43.08
2022-08-01T01:25:18.557Z,43.09
2022-08-01T01:27:23.075Z,43.05
2022-08-01T01:29:27.806Z,43.04
2022-08-01T01:31:32.239Z,43.12
2022-08-01T01:33:48.410Z,43.15
2022-08-01T01:35:53.008Z,43.22
2022-08-01T01:37:57.473Z,43.19
2022-08-01T01:40:01.955Z,43.24
2022-08-01T01:42:07.531Z,43.24
2022-08-01T01:44:12.117Z,43.28
2022-08-01T01:46:16.597Z,43.31
2022-08-01T01:48:21.175Z,43.31
2022-08-01T01:50:25.804Z,43.33
2022-08-01T01:52:30.475Z,43.37
2022-08-01T01:54:35.028Z,43.34
2022-08-01T01:56:39.554Z,43.34
2022-08-01T01:58:44.153Z,43.37
2022-08-01T02:00:51.565Z,43.38
2022-08-01T02:02:56.365Z,43.33
2022-08-01T02:05:00.871Z,43.34
2022-08-01T02:07:05.431Z,43.32
2022-08-01T02:09:12.610Z,43.32
2022-08-01T02:11:17.073Z,43.35
2022-08-01T02:13:23.487Z,43.39
2022-08-01T02:15:28.015Z,43.42
2022-08-01T02:17:32.479Z,43.42
2022-08-01T02:19:40.634Z,43.42
2022-08-01T02:21:45.128Z,43.4
2022-08-01T02:23:49.777Z,43.45
2022-08-01T02:26:13.412Z,43.47
2022-08-01T02:28:17.927Z,43.44
2022-08-01T02:30:22.565Z,43.44
2022-08-01T02:32:27.221Z,43.48
2022-08-01T02:34:31.860Z,43.44
2022-08-01T02:36:36.321Z,43.36
2022-08-01T02:38:40.808Z,43.28
2022-08-01T02:40:45.341Z,43.25
2022-08-01T02:42:49.999Z,43.19
2022-08-01T02:44:54.622Z,43.13
2022-08-01T02:46:59.258Z,43.07
2022-08-01T02:49:04.097Z,43.01
2022-08-01T02:51:08.697Z,43
2022-08-01T02:53:13.308Z,42.98
2022-08-01T02:55:17.831Z,43
2022-08-01T02:57:23.275Z,42.98
2022-08-01T02:59:36.025Z,42.97
2022-08-01T03:01:44.650Z,42.95
2022-08-01T03:03:49.434Z,42.88
2022-08-01T03:05:53.944Z,42.87
2022-08-01T03:08:05.226Z,42.85
2022-08-01T03:10:17.078Z,42.85
2022-08-01T03:12:22.176Z,42.84
2022-08-01T03:14:27.818Z,42.89
2022-08-01T03:16:32.743Z,42.92
2022-08-01T03:18:37.673Z,42.94
2022-08-01T03:20:43.902Z,42.91
2022-08-01T03:22:48.780Z,42.94
2022-08-01T03:24:53.952Z,42.96
2022-08-01T03:26:58.573Z,42.98
2022-08-01T03:29:03.407Z,43.03
2022-08-01T03:31:07.970Z,43.07
2022-08-01T03:33:16.816Z,43.12
2022-08-01T03:35:21.690Z,43.1
2022-08-01T03:37:26.360Z,43.1
2022-08-01T03:39:31.326Z,43.12
2022-08-01T03:41:36.229Z,43.15
2022-08-01T03:43:41.270Z,43.21
2022-08-01T03:45:46.098Z,43.24
2022-08-01T03:47:53.142Z,43.23
2022-08-01T03:49:57.860Z,43.27
2022-08-01T03:52:03.106Z,43.25
2022-08-01T03:54:08.327Z,43.3
2022-08-01T03:56:13.057Z,43.28
2022-08-01T03:58:17.796Z,43.27
2022-08-01T04:00:22.844Z,43.24
2022-08-01T04:02:27.430Z,43.25
2022-08-01T04:04:31.888Z,43.24
2022-08-01T04:06:36.678Z,43.27
2022-08-01T04:08:41.129Z,43.29
2022-08-01T04:10:45.819Z,43.33
2022-08-01T04:12:50.848Z,43.41
2022-08-01T04:14:55.308Z,43.45
2022-08-01T04:16:59.783Z,43.55
2022-08-01T04:19:04.242Z,43.59
2022-08-01T04:21:08.799Z,43.62
2022-08-01T04:23:13.349Z,43.63
2022-08-01T04:25:17.809Z,43.66
2022-08-01T04:27:53.779Z,43.7
2022-08-01T04:29:58.335Z,43.72
2022-08-01T04:32:03.185Z,43.79
2022-08-01T04:34:08.068Z,43.83
2022-08-01T04:36:12.536Z,43.83
2022-08-01T04:38:17.101Z,43.87
2022-08-01T04:40:21.557Z,43.96
2022-08-01T04:42:35.458Z,44.01
2022-08-01T04:44:39.856Z,44.08
2022-08-01T04:46:44.416Z,44.03
2022-08-01T04:48:49.251Z,44.06
2022-08-01T04:50:54.887Z,44.05
2022-08-01T04:52:59.363Z,44.08
2022-08-01T04:55:03.998Z,44.03
2022-08-01T04:57:08.520Z,44.01
2022-08-01T04:59:21.874Z,44.05
2022-08-01T05:01:26.792Z,44.12
2022-08-01T05:03:33.136Z,44.12
2022-08-01T05:05:38.805Z,44.17
2022-08-01T05:07:47.793Z,44.23
2022-08-01T05:09:52.222Z,44.26
2022-08-01T05:11:56.869Z,44.2
2022-08-01T05:14:01.349Z,44.17
2022-08-01T05:16:06.357Z,44.12
2022-08-01T05:18:11.533Z,44.06
2022-08-01T05:20:16.044Z,44.13
2022-08-01T05:22:20.559Z,44.05
2022-08-01T05:24:26.750Z,44.14
2022-08-01T05:26:33.010Z,44.23
2022-08-01T05:28:37.489Z,44.26
2022-08-01T05:30:42.461Z,44.3
2022-08-01T05:32:47.212Z,44.32
2022-08-01T05:34:51.686Z,44.38
2022-08-01T05:37:00.087Z,44.51
2022-08-01T05:39:04.565Z,44.51
2022-08-01T05:41:08.991Z,44.6
2022-08-01T05:43:13.470Z,44.68
2022-08-01T05:45:18.053Z,44.67
2022-08-01T05:47:22.547Z,44.86
2022-08-01T05:49:27.394Z,44.8
2022-08-01T05:51:32.013Z,44.84
2022-08-01T05:53:36.774Z,44.9
2022-08-01T05:55:41.286Z,44.96
2022-08-01T05:57:45.979Z,45
2022-08-01T05:59:50.636Z,45.02
2022-08-01T06:01:55.513Z,44.93
2022-08-01T06:04:00.015Z,44.93
2022-08-01T06:06:04.564Z,44.92
2022-08-01T06:08:09.115Z,45.06
2022-08-01T06:10:13.647Z,44.98
2022-08-01T06:12:18.161Z,45.25
2022-08-01T06:14:22.743Z,45.23
2022-08-01T06:16:27.286Z,45.31
2022-08-01T06:18:31.904Z,45.34
2022-08-01T06:20:36.530Z,45.46
2022-08-01T06:22:42.683Z,45.48
2022-08-01T06:24:47.199Z,45.48
2022-08-01T06:26:51.847Z,45.6
2022-08-01T06:28:56.567Z,45.56
2022-08-01T06:31:01.086Z,45.76
2022-08-01T06:33:05.652Z,45.67
2022-08-01T06:35:10.329Z,45.54
2022-08-01T06:37:14.845Z,45.74
2022-08-01T06:39:19.345Z,45.74
2022-08-01T06:41:23.820Z,45.92
2022-08-01T06:43:28.302Z,45.77
2022-08-01T06:45:32.924Z,45.82
2022-08-01T06:47:37.660Z,45.95
2022-08-01T06:49:42.148Z,45.9
2022-08-01T06:51:46.753Z,45.89
2022-08-01T06:53:51.307Z,46.15
2022-08-01T06:55:55.780Z,46.04
2022-08-01T06:58:00.343Z,46.22
2022-08-01T07:00:04.815Z,46.54
2022-08-01T07:02:10.592Z,46.37
2022-08-01T07:04:15.074Z,46.52
2022-08-01T07:06:19.651Z,46.44
2022-08-01T07:08:24.169Z,46.59
2022-08-01T07:10:28.901Z,46.58
2022-08-01T07:12:33.412Z,46.51
2022-08-01T07:14:38.076Z,46.84
2022-08-01T07:16:42.652Z,46.87
2022-08-01T07:18:47.239Z,46.92
2022-08-01T07:20:54.766Z,46.83
2022-08-01T07:23:03.147Z,46.6
2022-08-01T07:25:08.052Z,46.71
2022-08-01T07:27:27.961Z,46.66
2022-08-01T07:29:32.605Z,46.6
2022-08-01T07:31:37.115Z,46.62
2022-08-01T07:33:51.471Z,46.65
2022-08-01T07:35:55.964Z,46.61
2022-08-01T07:38:00.613Z,46.54
2022-08-01T07:40:05.365Z,46.39
2022-08-01T07:42:11.363Z,46.52
2022-08-01T07:44:16.013Z,46.59
2022-08-01T07:46:20.635Z,46.6
2022-08-01T07:48:25.669Z,46.53
2022-08-01T07:50:35.304Z,46.58
2022-08-01T07:52:39.782Z,46.57
2022-08-01T07:54:46.200Z,46.55
2022-08-01T07:56:52.632Z,46.45
2022-08-01T07:58:57.255Z,46.52
2022-08-01T08:01:01.950Z,46.42
2022-08-01T08:03:06.719Z,46.46
2022-08-01T08:05:13.814Z,46.49
2022-08-01T08:07:18.735Z,46.46
2022-08-01T08:09:23.245Z,46.38
2022-08-01T08:11:32.173Z,46.36
2022-08-01T08:13:36.766Z,46.35
2022-08-01T08:15:41.369Z,46.35
2022-08-01T08:17:57.085Z,46.49
2022-08-01T08:20:01.915Z,46.45
2022-08-01T08:22:07.719Z,46.36
2022-08-01T08:24:14.723Z,46.33
2022-08-01T08:26:19.332Z,46.4
2022-08-01T08:28:30.031Z,46.44
2022-08-01T08:30:34.550Z,46.49
2022-08-01T08:32:39.074Z,46.56
2022-08-01T08:34:43.901Z,46.49
2022-08-01T08:36:50.699Z,46.58
2022-08-01T08:38:55.220Z,46.76
2022-08-01T08:40:59.777Z,46.79
2022-08-01T08:43:04.272Z,46.88
2022-08-01T08:45:14.075Z,47.07
2022-08-01T08:47:22.342Z,47.27
2022-08-01T08:49:27.374Z,47.39
2022-08-01T08:51:40.172Z,47.43
2022-08-01T08:53:44.739Z,47.43
2022-08-01T08:55:57.827Z,47.49
2022-08-01T08:58:02.481Z,47.49
2022-08-01T09:00:07.046Z,47.37
2022-08-01T09:02:12.755Z,47.5
2022-08-01T09:04:17.552Z,47.41
2022-08-01T09:06:22.192Z,47.39
2022-08-01T09:08:26.701Z,47.38
2022-08-01T09:10:31.886Z,47.47
2022-08-01T09:12:37.082Z,47.4
2022-08-01T09:14:44.477Z,47.34
2022-08-01T09:16:51.205Z,47.26
2022-08-01T09:18:56.067Z,47.4
2022-08-01T09:21:00.657Z,47.35
2022-08-01T09:23:06.032Z,47.3
2022-08-01T09:25:10.696Z,47.29
2022-08-01T09:27:15.688Z,47.2
2022-08-01T09:29:42.205Z,47.32
2022-08-01T09:31:50.009Z,47.29
2022-08-01T09:33:56.167Z,47.23
2022-08-01T09:36:03.556Z,47.16
2022-08-01T09:38:10.162Z,47.19
2022-08-01T09:40:14.742Z,47.22
2022-08-01T09:42:21.409Z,47.3
2022-08-01T09:44:55.742Z,47.4
2022-08-01T09:47:08.527Z,47.4
2022-08-01T09:49:15.600Z,47.34
2022-08-01T09:52:02.182Z,47.37
2022-08-01T09:54:08.289Z,47.35
2022-08-01T09:56:13.118Z,47.32
2022-08-01T09:58:17.626Z,47.25
2022-08-01T10:00:47.069Z,47.32
2022-08-01T10:02:52.357Z,47.29
2022-08-01T10:05:09.422Z,47.29
2022-08-01T10:07:14.851Z,47.29
2022-08-01T10:09:19.564Z,47.28
2022-08-01T10:11:40.374Z,47.3
2022-08-01T10:13:46.003Z,47.28
2022-08-01T10:15:50.756Z,47.22
2022-08-01T10:17:59.224Z,47.25
2022-08-01T10:20:04.656Z,47.27
2022-08-01T10:22:18.274Z,47.2
2022-08-01T10:24:23.628Z,47.22
2022-08-01T10:26:32.018Z,47.28
2022-08-01T10:28:41.260Z,47.2
2022-08-01T10:30:50.360Z,47.21
2022-08-01T10:32:56.138Z,47.28
2022-08-01T10:35:15.001Z,47.42
2022-08-01T10:37:20.349Z,47.34
2022-08-01T10:39:26.157Z,47.32
2022-08-01T10:41:33.460Z,47.38
2022-08-01T10:43:38.549Z,47.38
2022-08-01T10:45:43.901Z,47.39
2022-08-01T10:47:53.495Z,47.57
2022-08-01T10:49:58.007Z,47.53
2022-08-01T10:52:02.987Z,47.45
2022-08-01T10:54:12.418Z,47.49
2022-08-01T10:56:18.933Z,47.47
2022-08-01T10:58:23.416Z,47.46
2022-08-01T11:00:31.052Z,47.6
2022-08-01T11:02:36.454Z,47.51
2022-08-01T11:04:45.419Z,47.53
2022-08-01T11:06:51.370Z,47.68
2022-08-01T11:08:56.257Z,47.71
2022-08-01T11:11:01.857Z,47.57
2022-08-01T11:13:07.741Z,47.55
2022-08-01T11:15:12.399Z,47.56
2022-08-01T11:17:17.168Z,47.63
2022-08-01T11:19:25.763Z,47.62
2022-08-01T11:22:02.990Z,47.61
2022-08-01T11:24:08.614Z,47.72
2022-08-01T11:26:14.851Z,47.72
2022-08-01T11:28:36.509Z,47.75
2022-08-01T11:30:43.121Z,47.77
2022-08-01T11:33:13.300Z,47.75
2022-08-01T11:35:19.339Z,47.79
2022-08-01T11:37:27.343Z,47.8
2022-08-01T11:39:42.326Z,47.8
2022-08-01T11:41:47.557Z,47.8
2022-08-01T11:43:52.488Z,47.83
2022-08-01T11:46:00.025Z,47.73
2022-08-01T11:48:05.334Z,47.71
2022-08-01T11:50:09.884Z,47.76
2022-08-01T11:52:14.410Z,47.77
2022-08-01T11:54:38.032Z,47.79
2022-08-01T11:56:49.245Z,47.82
2022-08-01T11:58:57.862Z,47.82
2022-08-01T12:01:02.688Z,47.88
2022-08-01T12:03:09.620Z,47.84
2022-08-01T12:05:15.321Z,47.82
2022-08-01T12:07:20.358Z,47.81
2022-08-01T12:09:25.780Z,47.85
2022-08-01T12:11:39.417Z,47.77
2022-08-01T12:13:43.934Z,47.95
2022-08-01T12:15:52.385Z,47.95
2022-08-01T12:18:01.167Z,47.96
2022-08-01T12:20:05.670Z,47.92
2022-08-01T12:22:10.517Z,47.88
2022-08-01T12:24:15.007Z,47.95
2022-08-01T12:26:33.877Z,47.83
2022-08-01T12:28:38.967Z,47.81
2022-08-01T12:30:43.644Z,47.81
2022-08-01T12:32:48.251Z,47.81
2022-08-01T12:34:52.883Z,47.79
2022-08-01T12:36:57.396Z,47.81
2022-08-01T12:39:01.911Z,47.58
2022-08-01T12:41:06.405Z,47.28
2022-08-01T12:43:29.654Z,47.12
2022-08-01T12:45:34.303Z,46.93
2022-08-01T12:47:38.943Z,46.83
2022-08-01T12:49:43.455Z,46.9
2022-08-01T12:51:59.550Z,47.03
2022-08-01T12:54:04.073Z,47.16
2022-08-01T12:56:08.663Z,47.39
2022-08-01T12:58:18.167Z,47.45
2022-08-01T13:00:22.641Z,47.52
2022-08-01T13:02:27.165Z,47.45
2022-08-01T13:04:31.666Z,47.39
2022-08-01T13:06:36.188Z,47.36
2022-08-01T13:08:40.954Z,47.39
2022-08-01T13:10:45.434Z,47.39
2022-08-01T13:12:50.281Z,47.29
2022-08-01T13:14:55.001Z,47.33
2022-08-01T13:16:59.930Z,47.36
2022-08-01T13:19:04.651Z,47.38
2022-08-01T13:21:09.301Z,47.42
2022-08-01T13:24:04.213Z,47.49
2022-08-01T13:26:08.864Z,47.39
2022-08-01T13:28:13.413Z,47.22
2022-08-01T13:30:17.915Z,47.08
2022-08-01T13:32:33.624Z,47.08
2022-08-01T13:34:38.114Z,47.07
2022-08-01T13:36:50.761Z,47.01
2022-08-01T13:38:55.364Z,46.8
2022-08-01T13:40:59.833Z,46.82
2022-08-01T13:43:04.396Z,46.93
2022-08-01T13:45:16.975Z,46.61
2022-08-01T13:47:33.908Z,46.25
2022-08-01T13:49:43.543Z,46.17
2022-08-01T13:51:48.186Z,46.22
2022-08-01T13:53:52.816Z,46.17
2022-08-01T13:55:57.306Z,46.04
2022-08-01T13:58:01.847Z,46.24
2022-08-01T14:00:06.564Z,46.35
2022-08-01T14:02:11.851Z,46.21
2022-08-01T14:04:16.732Z,46.2
2022-08-01T14:06:21.664Z,46.8
2022-08-01T14:08:27.675Z,47.58
2022-08-01T14:10:32.792Z,47.56
2022-08-01T14:12:37.353Z,47.6
2022-08-01T14:14:41.862Z,47.53
2022-08-01T14:16:48.106Z,47.34
2022-08-01T14:18:52.666Z,47.42
2022-08-01T14:21:07.019Z,47.38
2022-08-01T14:23:12.120Z,46.99
2022-08-01T14:27:26.728Z,47.1
2022-08-01T14:30:05.587Z,47.38
2022-08-01T14:32:10.957Z,47.35
2022-08-01T14:34:15.451Z,48.2
2022-08-01T14:36:39.326Z,47.8
2022-08-01T14:38:48.851Z,47.93
2022-08-01T14:40:53.773Z,47.95
2022-08-01T14:42:58.353Z,48.01
2022-08-01T14:45:02.969Z,48.11
2022-08-01T14:47:24.493Z,48.24
2022-08-01T14:49:29.258Z,48.18
2022-08-01T14:51:34.070Z,48.25
2022-08-01T14:53:38.589Z,48.43
2022-08-01T14:55:44.533Z,48.84
2022-08-01T14:57:49.256Z,48.74
2022-08-01T14:59:53.732Z,48.73
2022-08-01T15:01:58.493Z,48.82
2022-08-01T15:04:10.897Z,48.69
2022-08-01T15:06:15.394Z,48.4
2022-08-01T15:08:20.032Z,47.75
2022-08-01T15:10:24.657Z,47.46
2022-08-01T15:12:51.708Z,47.24
2022-08-01T15:14:56.156Z,47.12
2022-08-01T15:17:00.964Z,46.99
2022-08-01T15:19:05.779Z,46.87
2022-08-01T15:21:41.058Z,46.93
2022-08-01T15:23:46.170Z,46.79
2022-08-01T15:25:50.780Z,46.76
2022-08-01T15:27:55.287Z,46.74
2022-08-01T15:30:00.015Z,46.71
2022-08-01T15:32:05.447Z,46.8
2022-08-01T15:34:10.355Z,46.85
2022-08-01T15:36:26.626Z,47.09
2022-08-01T15:38:31.394Z,47.19
2022-08-01T15:40:36.038Z,47.29
2022-08-01T15:42:40.597Z,47.44
2022-08-01T15:44:45.277Z,47.62
2022-08-01T15:46:49.992Z,47.75
2022-08-01T15:48:54.797Z,47.82
2022-08-01T15:50:59.444Z,47.88
2022-08-01T15:53:04.490Z,47.92
2022-08-01T15:55:09.079Z,47.91
2022-08-01T15:57:13.923Z,47.91
2022-08-01T15:59:18.649Z,47.92
2022-08-01T16:01:23.595Z,47.9
2022-08-01T16:03:28.400Z,47.88
2022-08-01T16:05:32.993Z,48
2022-08-01T16:08:03.084Z,47.96
2022-08-01T16:10:07.828Z,47.87
2022-08-01T16:12:12.617Z,47.79
2022-08-01T16:14:17.786Z,47.71
2022-08-01T16:16:22.430Z,47.69
2022-08-01T16:18:27.071Z,47.57
2022-08-01T16:20:31.657Z,47.54
2022-08-01T16:22:36.312Z,47.46
2022-08-01T16:24:40.963Z,47.56
2022-08-01T16:26:45.560Z,47.61
2022-08-01T16:28:50.388Z,47.57
2022-08-01T16:31:50.154Z,47.62
2022-08-01T16:34:07.702Z,47.58
2022-08-01T16:36:20.491Z,47.5
2022-08-01T16:38:25.772Z,47.43
2022-08-01T16:40:30.751Z,47.56
2022-08-01T16:42:35.451Z,47.56
2022-08-01T16:44:40.248Z,47.56
2022-08-01T16:46:44.976Z,47.66
2022-08-01T16:48:54.392Z,47.67
2022-08-01T16:50:59.137Z,47.81
2022-08-01T16:53:03.819Z,47.88
2022-08-01T16:55:08.382Z,47.79
2022-08-01T16:57:14.080Z,47.84
2022-08-01T16:59:18.928Z,47.9
2022-08-01T17:02:04.014Z,47.91
2022-08-01T17:04:08.843Z,47.99
2022-08-01T17:06:13.426Z,47.9
2022-08-01T17:08:18.160Z,47.9
2022-08-01T17:10:22.810Z,47.79
2022-08-01T17:12:27.543Z,47.57
2022-08-01T17:14:32.139Z,47.51
2022-08-01T17:16:36.637Z,47.42
2022-08-01T17:18:41.214Z,47.49
2022-08-01T17:20:50.437Z,47.54
2022-08-01T17:22:55.060Z,47.65
2022-08-01T17:24:59.667Z,47.85
2022-08-01T17:27:06.374Z,48.02
2022-08-01T17:29:14.327Z,48.58
2022-08-01T17:31:18.861Z,48.68
2022-08-01T17:33:23.478Z,48.83
2022-08-01T17:35:28.519Z,49.26
2022-08-01T17:37:33.238Z,49.32
2022-08-01T17:39:41.644Z,49.61
2022-08-01T17:41:46.274Z,49.64
2022-08-01T17:43:51.101Z,49.72
2022-08-01T17:45:55.684Z,49.84
2022-08-01T17:48:00.334Z,50.02
2022-08-01T17:50:05.403Z,50.08
2022-08-01T17:52:11.330Z,50.22
2022-08-01T17:54:16.033Z,50.35
2022-08-01T17:56:20.674Z,50.47
2022-08-01T17:58:53.563Z,50.8
2022-08-01T18:00:58.178Z,50.91
2022-08-01T18:03:09.356Z,51.03
2022-08-01T18:05:18.447Z,51.15
2022-08-01T18:08:02.503Z,51.14
2022-08-01T18:10:13.536Z,51.31
2022-08-01T18:12:21.491Z,51.38
2022-08-01T18:14:44.953Z,51.45
2022-08-01T18:16:49.578Z,51.57
2022-08-01T18:18:54.164Z,51.75
2022-08-01T18:20:59.777Z,51.71
2022-08-01T18:23:04.364Z,51.66
2022-08-01T18:25:10.825Z,51.75
2022-08-01T18:27:15.532Z,51.78
2022-08-01T18:29:48.976Z,51.88
2022-08-01T18:31:53.534Z,51.86
2022-08-01T18:33:58.193Z,51.89
2022-08-01T18:36:05.701Z,52.01
2022-08-01T18:38:11.793Z,52.31
2022-08-01T18:40:24.043Z,52.13
2022-08-01T18:42:28.872Z,52.23
2022-08-01T18:44:33.437Z,52.26
2022-08-01T18:46:38.018Z,52.43
2022-08-01T18:48:42.744Z,52.44
2022-08-01T18:50:47.356Z,52.53
2022-08-01T18:52:52.053Z,52.51
2022-08-01T18:54:56.801Z,52.63
2022-08-01T18:57:01.430Z,52.69
2022-08-01T18:59:06.056Z,52.74
2022-08-01T19:01:10.975Z,52.84
2022-08-01T19:03:15.595Z,52.87
2022-08-01T19:05:20.220Z,52.89
2022-08-01T19:08:07.898Z,52.84
2022-08-01T19:10:12.983Z,52.92
2022-08-01T19:12:17.472Z,52.91
2022-08-01T19:14:22.119Z,52.97
2022-08-01T19:16:26.752Z,52.97
2022-08-01T19:18:31.223Z,52.97
2022-08-01T19:20:35.762Z,52.98
2022-08-01T19:22:40.458Z,52.94
2022-08-01T19:24:44.986Z,53.01
2022-08-01T19:26:49.608Z,53.03
2022-08-01T19:28:54.275Z,53.07
2022-08-01T19:30:58.897Z,53.19
2022-08-01T19:33:03.489Z,53.16
2022-08-01T19:35:08.036Z,53.18
2022-08-01T19:37:13.006Z,53.2
2022-08-01T19:39:18.870Z,53.22
2022-08-01T19:41:25.468Z,53.38
2022-08-01T19:43:30.200Z,53.4
2022-08-01T19:45:34.941Z,53.31
2022-08-01T19:47:59.222Z,53.26
2022-08-01T19:50:03.822Z,53.3
2022-08-01T19:52:08.454Z,53.24
2022-08-01T19:54:12.911Z,53.17
2022-08-01T19:56:17.637Z,53.16
2022-08-01T19:58:30.923Z,52.97
2022-08-01T20:00:35.650Z,52.91
2022-08-01T20:02:40.266Z,52.86
2022-08-01T20:04:44.896Z,52.77
2022-08-01T20:06:49.610Z,53.03
2022-08-01T20:08:54.551Z,53.12
2022-08-01T20:11:05.587Z,53.12
2022-08-01T20:13:16.438Z,53.09
2022-08-01T20:15:21.083Z,53.07
2022-08-01T20:17:25.802Z,53.07
2022-08-01T20:19:30.485Z,53.07
2022-08-01T20:21:35.072Z,53.08
2022-08-01T20:23:39.690Z,52.99
2022-08-01T20:25:44.521Z,53.05
2022-08-01T20:27:49.121Z,53.11
2022-08-01T20:29:53.969Z,53.18
2022-08-01T20:31:58.468Z,53.17
2022-08-01T20:34:03.083Z,53.18
2022-08-01T20:36:26.719Z,53.13
2022-08-01T20:38:31.251Z,53.15
2022-08-01T20:40:37.050Z,53.18
2022-08-01T20:42:41.618Z,53.02
2022-08-01T20:44:46.144Z,53.04
2022-08-01T20:46:50.704Z,53.09
2022-08-01T20:48:56.070Z,53.04
2022-08-01T20:51:00.766Z,53.01
2022-08-01T20:53:05.388Z,53.01
2022-08-01T20:55:09.997Z,53.02
2022-08-01T20:57:15.156Z,53.07
2022-08-01T20:59:58.590Z,53.03
2022-08-01T21:02:03.196Z,53.03
2022-08-01T21:04:07.791Z,53
2022-08-01T21:06:12.339Z,53.02
2022-08-01T21:08:16.960Z,53
2022-08-01T21:10:23.251Z,53.01
2022-08-01T21:12:27.923Z,53.08
2022-08-01T21:14:32.572Z,52.99
2022-08-01T21:16:37.266Z,52.95
2022-08-01T21:18:58.117Z,52.91
2022-08-01T21:21:14.323Z,52.93
2022-08-01T21:23:19.007Z,52.9
2022-08-01T21:25:23.613Z,52.91
2022-08-01T21:27:35.932Z,52.84
2022-08-01T21:29:40.545Z,52.85
2022-08-01T21:31:45.178Z,52.84
2022-08-01T21:34:05.458Z,52.83
2022-08-01T21:36:10.054Z,52.77
2022-08-01T21:38:14.611Z,52.75
2022-08-01T21:40:20.354Z,52.75
2022-08-01T21:42:26.122Z,52.72
2022-08-01T21:44:31.447Z,52.73
2022-08-01T21:46:36.139Z,52.7
2022-08-01T21:48:40.631Z,52.73
2022-08-01T21:50:45.600Z,52.78
2022-08-01T21:52:52.566Z,52.79
2022-08-01T21:55:00.836Z,52.97
2022-08-01T21:57:05.398Z,53.1
2022-08-01T21:59:10.146Z,53.19
2022-08-01T22:01:14.861Z,53.23
2022-08-01T22:03:19.594Z,53.31
2022-08-01T22:05:51.501Z,53.49
2022-08-01T22:07:56.271Z,53.44
2022-08-01T22:10:00.890Z,53.53
2022-08-01T22:12:05.619Z,53.47
2022-08-01T22:14:10.240Z,53.39
2022-08-01T22:16:14.963Z,53.35
2022-08-01T22:18:19.891Z,53.27
2022-08-01T22:20:24.512Z,53.31
2022-08-01T22:22:53.966Z,53.38
2022-08-01T22:24:58.533Z,53.41
2022-08-01T22:27:03.148Z,53.68
2022-08-01T22:29:07.985Z,53.56
2022-08-01T22:31:12.609Z,53.51
2022-08-01T22:33:19.594Z,53.44
2022-08-01T22:35:24.197Z,53.36
2022-08-01T22:38:01.691Z,53.36
2022-08-01T22:40:07.319Z,53.32
2022-08-01T22:42:12.097Z,53.32
2022-08-01T22:44:26.418Z,53.29
2022-08-01T22:46:34.824Z,53.28
2022-08-01T22:48:39.551Z,53.24
2022-08-01T22:50:44.152Z,53.17
2022-08-01T22:52:48.637Z,53.15
2022-08-01T22:54:53.303Z,53.19
2022-08-01T22:56:57.933Z,53.24
2022-08-01T22:59:02.506Z,53.28
2022-08-01T23:01:07.125Z,53.24
2022-08-01T23:03:12.234Z,53.12
2022-08-01T23:05:16.801Z,53.13
2022-08-01T23:07:21.400Z,53.2
2022-08-01T23:09:56.625Z,53.16
2022-08-01T23:12:01.405Z,53.16
2022-08-01T23:14:06.135Z,53.17
2022-08-01T23:16:13.385Z,53.01
2022-08-01T23:18:19.164Z,53.08
2022-08-01T23:20:23.655Z,53.12
2022-08-01T23:22:28.149Z,53.14
2022-08-01T23:24:33.768Z,53.11
2022-08-01T23:26:38.568Z,53.14
2022-08-01T23:28:43.237Z,53.05
2022-08-01T23:30:47.792Z,53.1
2022-08-01T23:32:52.266Z,53.2
2022-08-01T23:34:56.822Z,53.11
2022-08-01T23:37:01.479Z,53.14
2022-08-01T23:39:06.091Z,53.08
2022-08-01T23:41:10.716Z,53.17
2022-08-01T23:43:20.451Z,53.15
2022-08-01T23:45:25.061Z,53.07
2022-08-01T23:47:29.597Z,53.07
2022-08-01T23:49:54.209Z,52.93
2022-08-01T23:51:58.915Z,52.8
2022-08-01T23:54:03.528Z,52.8
2022-08-01T23:56:09.799Z,52.78
2022-08-01T23:58:14.367Z,52.81
